Time;durP1;ratioP1;P1;durP2;ratioP2;P2;SDS_P1;SDS_P2;PMS_P1;PMS_P2;Temp;Humidity;BMP_temperature;BMP_pressure;BME280_temperature;BME280_humidity;BME280_pressure;Samples;Min_cycle;Max_cycle;Signal;HPM_P1;HPM_P2
2021/11/19 00:03:16;;;;;;;12.60;5.93;;;;;;;8.46;73.90;101567.13;10280342;28;20134;-66
2021/11/19 00:08:25;;;;;;;13.50;7.30;;;;;;;8.57;73.76;101561.28;10284701;28;20050;-65
2021/11/19 00:13:28;;;;;;;11.10;5.65;;;;;;;8.49;73.89;101562.50;10321839;28;20050;-67
2021/11/19 00:18:30;;;;;;;14.18;6.05;;;;;;;8.49;74.08;101572.28;10283449;28;20061;-66
2021/11/19 00:23:32;;;;;;;13.15;6.25;;;;;;;8.48;73.92;101560.81;10282413;28;20431;-66
2021/11/19 00:28:38;;;;;;;10.70;6.30;;;;;;;8.49;74.08;101557.22;10303242;23;20153;-73
2021/11/19 00:33:40;;;;;;;10.55;5.70;;;;;;;8.55;73.63;101568.47;10250000;28;20042;-73
2021/11/19 00:38:43;;;;;;;11.65;6.47;;;;;;;8.57;74.11;101564.81;10250874;28;20049;-71
2021/11/19 00:43:44;;;;;;;13.70;6.70;;;;;;;8.56;74.17;101564.88;10248194;28;20060;-73
2021/11/19 00:48:47;;;;;;;12.93;6.15;;;;;;;8.41;74.40;101574.44;10258702;28;20050;-73
2021/11/19 00:53:52;;;;;;;9.68;5.18;;;;;;;8.44;74.71;101567.22;10262223;28;20493;-72
2021/11/19 00:58:56;;;;;;;9.40;6.22;;;;;;;8.38;74.65;101575.44;10255803;28;20047;-73
2021/11/19 01:04:00;;;;;;;6.80;5.40;;;;;;;8.40;74.73;101572.72;10262541;28;20461;-73
2021/11/19 01:09:09;;;;;;;10.35;5.88;;;;;;;8.49;74.61;101566.97;10245632;28;20050;-72
2021/11/19 01:14:17;;;;;;;10.20;6.75;;;;;;;8.48;74.55;101562.59;10270094;28;20494;-76
2021/11/19 01:19:25;;;;;;;16.17;7.35;;;;;;;8.39;74.89;101560.38;10247773;28;20071;-72
2021/11/19 01:24:27;;;;;;;13.07;6.78;;;;;;;8.42;74.69;101578.78;10251346;28;20478;-73
2021/11/19 01:29:29;;;;;;;13.35;6.88;;;;;;;8.34;74.31;101588.94;10263250;28;20054;-73
2021/11/19 01:34:30;;;;;;;11.68;6.43;;;;;;;8.30;74.32;101581.16;10256388;28;20058;-76
2021/11/19 01:39:35;;;;;;;10.38;7.18;;;;;;;8.17;74.69;101587.97;10257099;28;20082;-74
2021/11/19 01:44:42;;;;;;;11.30;7.63;;;;;;;8.10;74.69;101592.72;10298512;28;20468;-76
2021/11/19 01:49:43;;;;;;;13.23;8.18;;;;;;;7.97;75.21;101602.19;10256550;28;20556;-73
2021/11/19 01:54:49;;;;;;;16.42;7.63;;;;;;;7.96;75.67;101597.84;10275805;28;20509;-74
2021/11/19 02:00:04;;;;;;;17.42;8.95;;;;;;;7.97;75.54;101588.94;10255862;28;20058;-74
2021/11/19 02:05:09;;;;;;;17.55;7.75;;;;;;;7.93;75.92;101590.03;10271653;28;20046;-74
2021/11/19 02:10:32;;;;;;;17.87;8.87;;;;;;;7.78;76.02;101600.44;10279584;28;20137;-73
2021/11/19 02:15:44;;;;;;;18.90;10.02;;;;;;;7.78;76.51;101586.31;10280010;28;20281;-74
2021/11/19 02:20:49;;;;;;;12.20;8.90;;;;;;;7.73;76.94;101590.97;10271768;28;20149;-74
2021/11/19 02:25:57;;;;;;;18.42;8.77;;;;;;;7.67;77.56;101589.50;10257090;28;20081;-75
2021/11/19 02:31:06;;;;;;;15.35;9.75;;;;;;;7.68;76.91;101585.88;10277553;28;20035;-74
2021/11/19 02:36:12;;;;;;;14.43;9.60;;;;;;;7.51;77.63;101580.53;10254407;28;20130;-71
2021/11/19 02:41:16;;;;;;;15.52;10.20;;;;;;;7.58;77.66;101574.88;10271686;28;20442;-72
2021/11/19 02:46:23;;;;;;;15.93;10.35;;;;;;;7.68;77.66;101585.88;10273323;28;20145;-73
2021/11/19 02:51:27;;;;;;;15.40;10.38;;;;;;;7.68;77.20;101591.19;10274182;28;20046;-73
2021/11/19 02:56:29;;;;;;;17.05;10.88;;;;;;;7.61;78.14;101589.75;10270646;28;20050;-74
2021/11/19 03:01:36;;;;;;;16.25;11.10;;;;;;;7.56;77.94;101597.06;10276710;28;20896;-76
2021/11/19 03:06:42;;;;;;;13.75;10.57;;;;;;;7.54;78.67;101593.66;10271360;28;20583;-74
2021/11/19 03:11:44;;;;;;;19.38;11.35;;;;;;;7.49;78.58;101585.03;10253387;28;20053;-71
2021/11/19 03:16:46;;;;;;;15.02;11.82;;;;;;;7.41;79.25;101583.59;10282385;28;20081;-75
2021/11/19 03:21:48;;;;;;;18.42;11.68;;;;;;;7.49;79.23;101580.63;10287919;28;20501;-73
2021/11/19 03:26:52;;;;;;;16.92;12.10;;;;;;;7.48;79.79;101589.47;10271765;28;20110;-74
2021/11/19 03:31:54;;;;;;;19.00;11.43;;;;;;;7.59;79.33;101583.69;10255418;28;20057;-72
2021/11/19 03:36:57;;;;;;;17.48;12.60;;;;;;;7.48;79.32;101578.88;10255326;28;20527;-73
2021/11/19 03:42:00;;;;;;;18.38;12.98;;;;;;;7.49;79.79;101590.31;10253076;28;20130;-73
2021/11/19 03:47:20;;;;;;;17.87;11.60;;;;;;;7.59;79.41;101583.69;10270809;28;20050;-72
2021/11/19 03:52:33;;;;;;;18.95;12.23;;;;;;;7.59;79.46;101586.31;10263900;28;20130;-71
2021/11/19 03:57:34;;;;;;;19.35;14.00;;;;;;;7.50;80.05;101594.72;10263933;28;20064;-71
2021/11/19 04:02:37;;;;;;;21.40;13.50;;;;;;;7.34;81.09;101591.88;10265540;28;20378;-72
2021/11/19 04:07:38;;;;;;;20.52;13.93;;;;;;;7.36;81.25;101598.84;10256800;28;20121;-71
2021/11/19 04:12:41;;;;;;;20.20;12.95;;;;;;;7.43;82.00;101605.59;10250569;28;20145;-73
2021/11/19 04:17:43;;;;;;;20.83;12.93;;;;;;;7.40;82.38;101597.78;10268030;28;20101;-74
2021/11/19 04:22:45;;;;;;;20.85;13.75;;;;;;;7.35;84.03;101605.06;10286724;28;20081;-74
2021/11/19 04:27:47;;;;;;;20.23;13.65;;;;;;;7.31;84.91;101607.94;10306291;28;20440;-72
2021/11/19 04:32:49;;;;;;;26.15;15.27;;;;;;;7.22;86.61;101612.72;10284498;28;20391;-72
2021/11/19 04:37:51;;;;;;;26.25;16.50;;;;;;;7.27;87.22;101599.28;10251690;28;20240;-75
2021/11/19 04:42:53;;;;;;;26.15;15.52;;;;;;;7.33;87.52;101596.34;10270683;28;20121;-73
2021/11/19 04:47:54;;;;;;;24.38;15.40;;;;;;;7.23;88.81;101606.47;10269677;28;20124;-72
2021/11/19 04:52:56;;;;;;;20.58;14.82;;;;;;;7.37;88.66;101611.19;10267362;28;20076;-74
2021/11/19 04:57:58;;;;;;;22.65;14.75;;;;;;;7.24;89.79;101607.34;10268317;28;20042;-73
2021/11/19 05:02:59;;;;;;;20.35;14.93;;;;;;;7.33;89.64;101604.28;10269820;28;20065;-75
2021/11/19 05:08:03;;;;;;;22.92;15.13;;;;;;;7.35;90.31;101599.75;10270212;28;20119;-73
2021/11/19 05:13:05;;;;;;;20.80;15.00;;;;;;;7.48;90.00;101604.53;10270508;28;20074;-73
2021/11/19 05:18:08;;;;;;;20.75;13.93;;;;;;;7.50;90.01;101589.41;10274192;28;20130;-72
2021/11/19 05:23:09;;;;;;;18.38;13.52;;;;;;;7.48;90.84;101591.28;10283553;28;20050;-77
2021/11/19 05:28:14;;;;;;;20.75;14.38;;;;;;;7.53;90.97;101583.97;10269039;28;20133;-73
2021/11/19 05:33:19;;;;;;;25.25;14.77;;;;;;;7.43;91.86;101594.13;10250042;28;20118;-73
2021/11/19 05:38:21;;;;;;;20.10;14.05;;;;;;;7.54;92.19;101593.66;10276263;28;20361;-74
2021/11/19 05:43:24;;;;;;;18.70;13.50;;;;;;;7.60;92.51;101603.94;10276758;28;20142;-72
2021/11/19 05:48:26;;;;;;;18.88;13.32;;;;;;;7.59;91.55;101597.78;10251954;28;20141;-73
2021/11/19 05:53:27;;;;;;;19.77;13.20;;;;;;;7.60;92.45;101590.72;10262518;28;20564;-74
2021/11/19 05:58:29;;;;;;;19.40;12.82;;;;;;;7.72;92.25;101595.44;10265213;28;20134;-72
2021/11/19 06:03:30;;;;;;;15.55;12.52;;;;;;;7.78;91.34;101597.78;10260411;28;20485;-73
2021/11/19 06:08:32;;;;;;;18.30;12.88;;;;;;;7.57;92.90;101596.16;10243679;28;20152;-72
2021/11/19 06:13:40;;;;;;;20.45;13.02;;;;;;;7.42;94.05;101617.09;10257928;28;20501;-72
2021/11/19 06:18:45;;;;;;;16.10;12.77;;;;;;;7.47;94.62;101629.28;10256029;28;20314;-71
2021/11/19 06:23:49;;;;;;;20.30;14.10;;;;;;;7.55;93.46;101628.03;10254598;28;20487;-72
2021/11/19 06:28:53;;;;;;;18.27;12.73;;;;;;;7.48;93.81;101628.38;10253247;28;20050;-72
2021/11/19 06:33:55;;;;;;;18.90;13.55;;;;;;;7.47;92.98;101624.00;10240760;28;20294;-73
2021/11/19 06:38:59;;;;;;;17.80;14.25;;;;;;;7.40;93.98;101642.81;10241770;28;20602;-72
2021/11/19 06:44:00;;;;;;;23.58;15.60;;;;;;;7.44;94.32;101633.78;10257077;28;20145;-71
2021/11/19 06:49:03;;;;;;;22.38;15.60;;;;;;;7.44;94.51;101656.78;10242056;28;20050;-71
2021/11/19 06:54:05;;;;;;;22.52;15.25;;;;;;;7.47;94.73;101664.59;10256543;28;20047;-72
2021/11/19 06:59:07;;;;;;;21.75;15.10;;;;;;;7.43;94.44;101658.59;10252796;28;20057;-74
2021/11/19 07:04:08;;;;;;;22.58;15.63;;;;;;;7.48;94.09;101668.13;10243230;28;20065;-72
2021/11/19 07:09:13;;;;;;;27.27;17.63;;;;;;;7.48;94.05;101662.81;10266782;28;20369;-71
2021/11/19 07:14:15;;;;;;;;;;;;;;;7.62;94.80;101660.38;10240801;28;20582;-68
2021/11/19 07:19:17;;;;;;;20.27;14.35;;;;;;;7.83;93.54;101663.00;10256989;28;20341;-73
2021/11/19 07:24:19;;;;;;;23.48;15.40;;;;;;;7.67;93.20;101662.81;10254157;28;20085;-74
2021/11/19 07:29:21;;;;;;;26.70;17.23;;;;;;;7.58;93.74;101666.75;10254710;28;20055;-71
2021/11/19 07:34:23;;;;;;;22.23;16.17;;;;;;;7.60;94.01;101672.84;10256491;28;20124;-72
2021/11/19 07:39:24;;;;;;;25.05;17.73;;;;;;;7.52;94.69;101669.69;10257531;28;20133;-71
2021/11/19 07:44:26;;;;;;;24.38;16.42;;;;;;;7.61;94.02;101680.75;10254307;28;21288;-71
2021/11/19 07:49:27;;;;;;;28.92;18.08;;;;;;;7.54;93.99;101673.13;10258685;28;20138;-71
2021/11/19 07:54:30;;;;;;;24.33;17.05;;;;;;;7.78;93.13;101674.66;10255907;28;20051;-72
2021/11/19 07:59:33;;;;;;;23.48;16.60;;;;;;;7.86;92.63;101684.06;10250866;28;20081;-71
2021/11/19 08:04:36;;;;;;;23.58;17.02;;;;;;;7.85;92.78;101682.31;10237218;28;20291;-72
2021/11/19 08:09:38;;;;;;;23.55;15.95;;;;;;;7.91;92.08;101684.69;10255376;28;20134;-72
2021/11/19 08:14:42;;;;;;;24.10;17.13;;;;;;;7.91;92.29;101684.69;10237923;28;20050;-72
2021/11/19 08:19:44;;;;;;;23.50;17.25;;;;;;;7.87;92.84;101699.03;10255501;28;20066;-73
2021/11/19 08:24:47;;;;;;;23.27;16.75;;;;;;;7.96;92.62;101698.59;10239460;28;20165;-72
2021/11/19 08:29:52;;;;;;;23.83;17.23;;;;;;;7.79;93.21;101689.63;10259443;28;20162;-69
2021/11/19 08:34:54;;;;;;;24.63;16.65;;;;;;;7.88;93.55;101693.66;10235123;28;20424;-70
2021/11/19 08:39:55;;;;;;;24.40;18.52;;;;;;;7.81;93.26;101683.38;10252352;28;20043;-71
2021/11/19 08:44:57;;;;;;;19.80;15.52;;;;;;;7.71;93.73;101686.47;10250716;28;20550;-74
2021/11/19 08:50:23;;;;;;;22.23;15.43;;;;;;;7.69;93.48;101693.63;10254811;28;20050;-71
2021/11/19 08:55:25;;;;;;;19.60;14.75;;;;;;;7.70;93.86;101679.47;10255029;28;20190;-70
2021/11/19 09:00:33;;;;;;;19.70;15.00;;;;;;;7.85;93.67;101688.50;10254623;28;20145;-72
2021/11/19 09:05:38;;;;;;;22.00;16.55;;;;;;;7.81;93.51;101686.91;10269284;28;20070;-71
2021/11/19 09:10:40;;;;;;;20.37;14.43;;;;;;;7.72;94.92;101688.19;10280701;28;20051;-72
2021/11/19 09:15:42;;;;;;;19.15;14.75;;;;;;;7.79;94.70;101688.75;10258119;28;20051;-73
2021/11/19 09:20:43;;;;;;;22.15;16.30;;;;;;;7.86;93.97;101684.06;10254170;28;20189;-70
2021/11/19 09:25:47;;;;;;;18.67;14.45;;;;;;;7.98;93.49;101688.78;10251915;28;20556;-71
2021/11/19 09:30:54;;;;;;;17.73;14.23;;;;;;;7.99;93.46;101684.31;10248170;28;20039;-73
2021/11/19 09:35:55;;;;;;;20.65;15.57;;;;;;;8.06;93.45;101694.59;10234420;28;20055;-72
2021/11/19 09:41:36;;;;;;;20.63;15.95;;;;;;;8.14;93.04;101702.19;10250026;28;20512;-72
2021/11/19 09:46:56;;;;;;;23.52;16.27;;;;;;;8.19;92.42;101691.38;10247517;28;20126;-74
2021/11/19 09:52:42;;;;;;;21.65;15.80;;;;;;;8.07;93.42;101701.59;10247977;28;20047;-72
2021/11/19 09:57:43;;;;;;;17.52;15.00;;;;;;;8.11;93.31;101697.03;10231502;28;20039;-70
2021/11/19 10:03:07;;;;;;;19.23;15.65;;;;;;;8.21;92.26;101697.44;10231810;28;20138;-70
2021/11/19 10:08:26;;;;;;;20.63;15.30;;;;;;;8.22;93.08;101692.06;10247558;28;20054;-74
2021/11/19 10:14:05;;;;;;;20.52;15.05;;;;;;;8.32;91.77;101682.72;10249689;28;20051;-75
2021/11/19 10:19:13;;;;;;;19.58;15.73;;;;;;;8.25;92.22;101686.59;10249373;28;20082;-72
2021/11/19 10:24:29;;;;;;;21.45;15.90;;;;;;;8.30;92.42;101684.63;10246766;28;20133;-70
2021/11/19 10:29:39;;;;;;;20.83;14.20;;;;;;;8.34;91.99;101690.63;10255773;28;20114;-70
2021/11/19 10:34:59;;;;;;;18.67;15.10;;;;;;;8.39;91.50;101682.44;10237591;28;20054;-70
2021/11/19 10:40:18;;;;;;;23.00;16.95;;;;;;;8.30;92.30;101689.03;10251682;28;20501;-70
2021/11/19 10:45:20;;;;;;;21.70;15.80;;;;;;;8.47;92.04;101675.00;10255604;28;20419;-73
2021/11/19 10:50:52;;;;;;;21.48;15.55;;;;;;;8.58;91.28;101685.09;10262088;28;20070;-72
2021/11/19 10:56:32;;;;;;;19.27;15.23;;;;;;;8.56;90.91;101686.97;10246533;28;20058;-72
2021/11/19 11:01:49;;;;;;;22.15;15.85;;;;;;;8.68;91.23;101689.00;10236160;23;20055;-65
2021/11/19 11:07:07;;;;;;;17.90;13.70;;;;;;;8.72;90.22;101668.47;10288388;28;20057;-67
2021/11/19 11:12:11;;;;;;;19.42;14.20;;;;;;;8.65;91.06;101667.94;10272832;28;20082;-64
2021/11/19 11:17:24;;;;;;;16.00;14.30;;;;;;;8.73;91.54;101652.47;10262096;28;20053;-67
2021/11/19 11:22:32;;;;;;;19.95;14.18;;;;;;;8.81;90.74;101642.31;10260337;28;20046;-66
2021/11/19 11:28:03;;;;;;;21.23;16.00;;;;;;;8.94;90.78;101636.38;10255286;28;20047;-66
2021/11/19 11:33:13;;;;;;;17.88;15.13;;;;;;;9.00;90.45;101634.25;10258207;28;20048;-66
2021/11/19 11:38:24;;;;;;;19.88;13.82;;;;;;;8.96;90.79;101640.69;10256453;28;20531;-65
2021/11/19 11:43:27;;;;;;;15.93;12.45;;;;;;;9.03;90.40;101636.75;10246849;28;20471;-66
2021/11/19 11:48:32;;;;;;;15.60;12.77;;;;;;;9.22;89.61;101638.47;10255796;28;20072;-66
2021/11/19 11:54:21;;;;;;;15.32;12.45;;;;;;;9.20;89.76;101627.91;10300114;28;20592;-66
2021/11/19 11:59:37;;;;;;;16.50;11.75;;;;;;;9.20;89.41;101616.41;10320811;28;20067;-66
2021/11/19 12:05:24;;;;;;;15.93;12.60;;;;;;;9.33;89.00;101617.47;10323899;28;20067;-66
2021/11/19 12:11:03;;;;;;;17.25;12.13;;;;;;;9.29;88.84;101620.38;10325448;28;20046;-65
2021/11/19 12:16:50;;;;;;;13.63;10.65;;;;;;;9.45;89.27;101605.31;10304046;28;20054;-66
2021/11/19 12:22:01;;;;;;;13.95;10.02;;;;;;;9.37;88.42;101591.63;10211051;28;20197;-65
2021/11/19 12:27:25;;;;;;;11.93;7.82;;;;;;;9.40;89.00;101599.41;10276593;28;20062;-65
2021/11/19 12:32:34;;;;;;;10.40;7.77;;;;;;;9.43;88.72;101601.03;10279365;28;20039;-65
2021/11/19 12:37:46;;;;;;;9.27;6.82;;;;;;;9.53;88.48;101596.94;10295143;28;20072;-66
2021/11/19 12:43:06;;;;;;;6.57;5.85;;;;;;;9.46;87.98;101591.09;10281673;28;20058;-66
2021/11/19 12:48:38;;;;;;;10.30;7.25;;;;;;;9.47;88.44;101576.88;10281047;28;20081;-65
2021/11/19 12:53:59;;;;;;;5.85;4.70;;;;;;;9.49;87.64;101580.31;10278307;28;20441;-65
2021/11/19 12:59:16;;;;;;;7.45;4.47;;;;;;;9.50;87.49;101566.09;10280879;28;20054;-65
2021/11/19 13:04:23;;;;;;;5.60;4.57;;;;;;;9.47;86.82;101566.25;10276201;28;20050;-65
2021/11/19 13:09:43;;;;;;;6.60;5.00;;;;;;;9.54;87.02;101559.63;10277080;28;20525;-64
2021/11/19 13:15:06;;;;;;;7.03;4.63;;;;;;;9.66;86.47;101554.59;10277969;28;20049;-65
2021/11/19 13:20:33;;;;;;;5.90;4.05;;;;;;;9.75;85.78;101542.59;10253333;28;20327;-65
2021/11/19 13:25:40;;;;;;;5.30;4.05;;;;;;;9.83;85.68;101551.84;10247564;28;20047;-66
2021/11/19 13:30:43;;;;;;;4.30;3.33;;;;;;;9.83;85.34;101550.97;10273239;28;20136;-65
2021/11/19 13:35:45;;;;;;;5.40;3.22;;;;;;;9.80;84.70;101545.81;10292256;28;20054;-65
2021/11/19 13:40:56;;;;;;;6.63;3.75;;;;;;;9.87;85.15;101541.88;10276181;28;20058;-66
2021/11/19 13:46:08;;;;;;;4.70;3.28;;;;;;;9.94;85.20;101537.06;10316710;28;20056;-64
2021/11/19 13:51:22;;;;;;;3.60;2.88;;;;;;;10.03;84.66;101534.75;10319193;28;20065;-66
2021/11/19 13:56:26;;;;;;;3.63;2.80;;;;;;;10.01;84.49;101533.09;10321046;28;20046;-65
2021/11/19 14:01:28;;;;;;;4.87;2.30;;;;;;;10.06;84.41;101531.91;10307759;28;20196;-65
2021/11/19 14:06:32;;;;;;;4.68;3.28;;;;;;;10.10;84.39;101532.56;10300512;28;20064;-67
2021/11/19 14:11:36;;;;;;;3.50;2.83;;;;;;;10.14;83.56;101528.78;10320662;28;20057;-65
2021/11/19 14:16:38;;;;;;;3.83;2.80;;;;;;;10.09;83.63;101523.72;10321622;28;20554;-66
2021/11/19 14:22:00;;;;;;;4.45;2.80;;;;;;;10.11;83.81;101525.47;10323936;28;20058;-66
2021/11/19 14:27:05;;;;;;;3.13;2.00;;;;;;;10.07;83.91;101528.31;10324418;28;20073;-66
2021/11/19 14:32:09;;;;;;;3.78;2.05;;;;;;;10.11;84.08;101528.97;10323482;28;20208;-65
2021/11/19 14:37:24;;;;;;;3.30;2.17;;;;;;;10.18;83.42;101521.50;10323769;28;20076;-65
2021/11/19 14:42:28;;;;;;;2.63;1.80;;;;;;;10.25;83.61;101526.38;10261074;28;20101;-66
2021/11/19 14:47:40;;;;;;;3.00;2.25;;;;;;;10.30;83.37;101522.56;10306528;28;20057;-66
2021/11/19 14:52:46;;;;;;;3.33;2.30;;;;;;;10.24;83.05;101519.31;10321031;28;20041;-65
2021/11/19 14:57:50;;;;;;;2.97;2.53;;;;;;;10.17;83.03;101501.16;10320943;28;20406;-64
2021/11/19 15:03:08;;;;;;;2.67;2.00;;;;;;;10.20;83.22;101508.94;10321353;28;20049;-65
2021/11/19 15:08:36;;;;;;;3.40;2.92;;;;;;;10.23;83.17;101508.78;10263546;28;20055;-65
2021/11/19 15:13:55;;;;;;;3.55;1.98;;;;;;;10.20;83.14;101512.47;10266358;28;20049;-65
2021/11/19 15:18:56;;;;;;;1.83;1.55;;;;;;;10.20;82.69;101519.59;10259855;28;20061;-65
2021/11/19 15:24:27;;;;;;;4.47;2.65;;;;;;;10.19;83.19;101521.41;10241445;28;20057;-65
2021/11/19 15:29:29;;;;;;;3.33;2.35;;;;;;;10.16;82.73;101526.03;10261762;28;20077;-64
2021/11/19 15:34:49;;;;;;;3.33;3.03;;;;;;;10.11;83.08;101522.81;10251068;28;20132;-65
2021/11/19 15:39:53;;;;;;;3.65;2.80;;;;;;;10.09;83.22;101506.94;10256234;28;20059;-64
2021/11/19 15:44:59;;;;;;;4.80;4.40;;;;;;;10.12;83.02;101509.41;10253919;28;20043;-65
2021/11/19 15:50:01;;;;;;;3.17;2.33;;;;;;;10.10;82.90;101521.91;10260044;28;20545;-65
2021/11/19 15:55:05;;;;;;;5.20;2.15;;;;;;;10.11;82.89;101523.66;10291989;28;20064;-66
2021/11/19 16:00:12;;;;;;;;;;;;;;;10.08;83.42;101513.19;10307817;28;20265;-66
2021/11/19 16:05:30;;;;;;;6.10;4.38;;;;;;;10.01;83.66;101518.03;10298029;28;19987;-65
2021/11/19 16:10:59;;;;;;;4.35;3.78;;;;;;;10.09;83.67;101509.59;10302535;28;20049;-66
2021/11/19 16:16:07;;;;;;;4.15;3.10;;;;;;;9.94;83.27;101513.13;10247896;28;20070;-66
2021/11/19 16:21:12;;;;;;;4.32;3.60;;;;;;;10.03;83.19;101513.47;10250188;28;20063;-66
2021/11/19 16:26:17;;;;;;;4.90;4.13;;;;;;;9.99;83.34;101524.38;10234595;28;20050;-67
2021/11/19 16:31:23;;;;;;;4.88;4.13;;;;;;;9.98;83.03;101522.63;10255627;28;20058;-65
2021/11/19 16:36:26;;;;;;;5.47;3.65;;;;;;;10.00;83.18;101534.06;10252642;28;20137;-66
2021/11/19 16:41:28;;;;;;;5.47;4.00;;;;;;;9.93;82.89;101527.38;10296123;28;20049;-67
2021/11/19 16:46:33;;;;;;;6.18;4.05;;;;;;;9.90;82.92;101521.28;10316775;28;20056;-67
2021/11/19 16:51:49;;;;;;;5.32;4.40;;;;;;;9.83;83.23;101513.75;10313899;28;20137;-65
2021/11/19 16:56:50;;;;;;;4.97;4.10;;;;;;;9.76;83.17;101512.38;10316473;28;20050;-65
2021/11/19 17:01:53;;;;;;;5.25;4.60;;;;;;;9.81;83.48;101532.44;10312903;28;20102;-66
2021/11/19 17:06:55;;;;;;;5.57;5.07;;;;;;;9.79;83.19;101531.69;10300984;28;20074;-66
2021/11/19 17:11:57;;;;;;;8.63;5.85;;;;;;;9.66;83.78;101533.31;10290483;28;20076;-66
2021/11/19 17:17:06;;;;;;;7.50;6.18;;;;;;;9.67;83.83;101521.75;10292969;28;20526;-65
2021/11/19 17:22:08;;;;;;;8.55;5.18;;;;;;;9.69;83.79;101534.00;10292616;28;20564;-66
2021/11/19 17:27:10;;;;;;;6.28;5.50;;;;;;;9.66;84.04;101533.31;10310806;28;20483;-65
2021/11/19 17:32:21;;;;;;;5.25;4.55;;;;;;;9.65;84.04;101536.91;10317340;28;20056;-66
2021/11/19 17:37:26;;;;;;;9.50;5.15;;;;;;;9.75;83.67;101529.28;10315091;28;20095;-66
2021/11/19 17:42:31;;;;;;;8.20;5.15;;;;;;;9.78;83.83;101545.91;10317038;28;20076;-66
2021/11/19 17:47:33;;;;;;;13.43;12.18;;;;;;;9.81;83.13;101532.44;10320360;28;20640;-66
2021/11/19 17:52:37;;;;;;;6.60;5.25;;;;;;;9.74;83.17;101531.06;10304398;28;20050;-66
2021/11/19 17:57:38;;;;;;;5.70;5.13;;;;;;;9.77;83.49;101533.56;10322672;28;20052;-65
2021/11/19 18:02:40;;;;;;;7.65;6.47;;;;;;;9.77;83.45;101533.56;10318016;28;20052;-66
2021/11/19 18:07:43;;;;;;;9.80;7.00;;;;;;;9.74;83.69;101536.38;10322904;28;20432;-66
2021/11/19 18:12:44;;;;;;;8.93;5.70;;;;;;;9.72;84.08;101525.00;10316328;28;20508;-66
2021/11/19 18:17:51;;;;;;;8.82;6.65;;;;;;;9.67;84.06;101530.56;10310480;28;20081;-66
2021/11/19 18:22:53;;;;;;;8.52;6.22;;;;;;;9.67;84.14;101529.72;10308981;28;20138;-66
2021/11/19 18:27:57;;;;;;;10.20;7.47;;;;;;;9.67;84.21;101529.72;10323027;28;20511;-66
2021/11/19 18:32:58;;;;;;;10.85;8.40;;;;;;;9.77;84.14;101535.38;10295926;28;20471;-66
2021/11/19 18:38:09;;;;;;;10.20;8.00;;;;;;;9.64;84.33;101530.75;10321683;28;20274;-66
2021/11/19 18:43:11;;;;;;;8.98;7.15;;;;;;;9.66;84.86;101538.63;10297823;28;20043;-65
2021/11/19 18:48:14;;;;;;;9.95;8.15;;;;;;;9.64;84.62;101541.38;10300819;28;20650;-66
2021/11/19 18:53:19;;;;;;;12.63;8.80;;;;;;;9.66;84.25;101538.63;10319818;28;20514;-65
2021/11/19 18:58:22;;;;;;;11.05;8.77;;;;;;;9.63;84.25;101538.81;10302377;28;20051;-67
2021/11/19 19:03:23;;;;;;;19.98;18.05;;;;;;;9.69;84.30;101546.44;10292176;28;20142;-66
2021/11/19 19:08:25;;;;;;;11.18;9.30;;;;;;;9.58;84.60;101544.38;10261818;28;20061;-66
2021/11/19 19:13:28;;;;;;;11.85;9.55;;;;;;;9.61;84.69;101546.88;10241401;28;20133;-67
2021/11/19 19:18:33;;;;;;;11.32;8.80;;;;;;;9.54;84.74;101538.38;10288320;28;20046;-65
2021/11/19 19:23:36;;;;;;;9.88;8.80;;;;;;;9.57;84.82;101541.81;10303483;28;20497;-66
2021/11/19 19:28:45;;;;;;;13.23;10.88;;;;;;;9.63;84.71;101539.66;10320058;28;20471;-66
2021/11/19 19:33:48;;;;;;;13.20;9.93;;;;;;;9.64;84.77;101540.53;10274500;28;20048;-65
2021/11/19 19:38:51;;;;;;;11.05;8.85;;;;;;;9.58;84.91;101540.84;10259998;28;20069;-65
2021/11/19 19:43:55;;;;;;;12.13;9.05;;;;;;;9.60;84.96;101541.66;10262719;28;20595;-65
2021/11/19 19:48:57;;;;;;;11.80;9.63;;;;;;;9.61;84.77;101551.31;10257855;28;20501;-65
2021/11/19 19:54:01;;;;;;;12.95;9.45;;;;;;;9.53;84.58;101541.13;10261129;28;20501;-66
2021/11/19 19:59:03;;;;;;;11.73;10.43;;;;;;;9.50;84.67;101539.50;10320134;28;20049;-65
2021/11/19 20:04:25;;;;;;;11.88;9.45;;;;;;;9.50;85.15;101547.47;10327296;28;20049;-65
2021/11/19 20:09:30;;;;;;;12.20;10.13;;;;;;;9.48;85.37;101549.34;10324276;28;20133;-65
2021/11/19 20:14:32;;;;;;;11.45;9.65;;;;;;;9.56;84.63;101548.91;10301665;28;20070;-66
2021/11/19 20:19:33;;;;;;;13.57;11.70;;;;;;;9.47;85.14;101552.97;10303906;28;20416;-66
2021/11/19 20:24:37;;;;;;;12.35;10.00;;;;;;;9.48;85.17;101561.78;10321275;28;20523;-65
2021/11/19 20:29:54;;;;;;;12.27;9.80;;;;;;;9.38;85.75;101554.31;10323088;28;20081;-66
2021/11/19 20:34:57;;;;;;;14.70;9.18;;;;;;;9.45;85.36;101546.00;10320899;28;20132;-66
2021/11/19 20:39:58;;;;;;;12.60;9.77;;;;;;;9.46;85.21;101553.91;10320529;28;20423;-66
2021/11/19 20:45:03;;;;;;;12.98;10.88;;;;;;;9.40;85.37;101550.69;10324638;28;20128;-66
2021/11/19 20:50:07;;;;;;;12.57;10.40;;;;;;;9.33;85.79;101558.16;10324292;28;20049;-65
2021/11/19 20:55:22;;;;;;;11.65;9.95;;;;;;;9.36;85.69;101563.31;10323857;28;20052;-65
2021/11/19 21:00:26;;;;;;;14.18;10.32;;;;;;;9.38;85.89;101564.06;10324692;28;20577;-65
2021/11/19 21:05:35;;;;;;;16.98;12.65;;;;;;;9.49;85.52;101563.50;10323926;28;20409;-65
2021/11/19 21:10:38;;;;;;;13.43;10.52;;;;;;;9.49;85.01;101555.53;10325547;28;20054;-67
2021/11/19 21:15:44;;;;;;;13.50;10.23;;;;;;;9.48;85.26;101554.66;10324761;28;20137;-65
2021/11/19 21:20:48;;;;;;;13.02;10.48;;;;;;;9.55;85.29;101548.06;10260970;28;20225;-65
2021/11/19 21:25:59;;;;;;;13.00;11.75;;;;;;;9.48;85.10;101541.38;10264704;28;20063;-65
2021/11/19 21:31:04;;;;;;;14.55;11.38;;;;;;;9.33;85.24;101539.56;10277551;28;20046;-65
2021/11/19 21:36:08;;;;;;;16.05;11.40;;;;;;;9.35;85.81;101551.84;10267082;28;20058;-65
2021/11/19 21:41:20;;;;;;;15.30;11.93;;;;;;;9.50;85.21;101544.81;10253029;28;20133;-64
2021/11/19 21:46:23;;;;;;;14.00;11.18;;;;;;;9.46;85.33;101545.94;10324349;28;20367;-65
2021/11/19 21:51:28;;;;;;;15.20;11.57;;;;;;;9.41;85.45;101549.78;10318493;28;20052;-64
2021/11/19 21:56:57;;;;;;;15.77;12.00;;;;;;;9.44;85.30;101544.28;10308283;28;20484;-64
2021/11/19 22:02:07;;;;;;;13.98;11.77;;;;;;;9.45;85.31;101551.31;10265433;28;20061;-64
2021/11/19 22:07:12;;;;;;;16.80;13.13;;;;;;;9.38;85.37;101548.13;10263991;28;21585;-63
2021/11/19 22:12:15;;;;;;;14.68;12.60;;;;;;;9.38;85.78;101542.81;10276802;28;20134;-64
2021/11/19 22:17:21;;;;;;;15.10;11.85;;;;;;;9.43;85.16;101542.56;10290975;28;20131;-64
2021/11/19 22:22:25;;;;;;;14.23;12.13;;;;;;;9.34;85.15;101534.16;10309533;28;20573;-65
2021/11/19 22:27:29;;;;;;;16.05;13.35;;;;;;;9.38;85.60;101541.03;10294360;28;20587;-64
2021/11/19 22:32:30;;;;;;;16.15;13.02;;;;;;;9.40;85.37;101543.59;10313560;28;20048;-64
2021/11/19 22:37:32;;;;;;;15.77;13.15;;;;;;;9.44;85.43;101533.66;10313854;28;20057;-65
2021/11/19 22:42:33;;;;;;;14.73;12.50;;;;;;;9.56;85.05;101540.94;10334781;28;20427;-65
2021/11/19 22:47:39;;;;;;;15.27;12.35;;;;;;;9.57;84.84;101549.78;10313587;28;20051;-64
2021/11/19 22:52:40;;;;;;;14.35;12.23;;;;;;;9.57;84.47;101539.16;10315650;28;20064;-66
2021/11/19 22:57:42;;;;;;;15.40;13.23;;;;;;;9.55;84.85;101542.75;10298232;28;20268;-65
2021/11/19 23:02:43;;;;;;;18.45;14.70;;;;;;;9.49;84.53;101545.75;10309180;28;20492;-65
2021/11/19 23:07:48;;;;;;;20.15;15.70;;;;;;;9.47;84.76;101542.34;10298493;28;20057;-66
2021/11/19 23:12:50;;;;;;;18.80;15.63;;;;;;;9.51;84.65;101538.53;10261124;28;20121;-66
2021/11/19 23:17:54;;;;;;;20.75;15.15;;;;;;;9.43;84.71;101537.25;10245090;28;20431;-65
2021/11/19 23:22:56;;;;;;;17.73;14.73;;;;;;;9.31;85.66;101534.34;10264164;28;20046;-65
2021/11/19 23:28:00;;;;;;;32.38;18.45;;;;;;;9.41;85.25;101524.03;10284636;28;20051;-65